createdAt,value
2023-05-05T00:01:45.408Z,10.60
2023-05-05T00:04:12.524Z,10.60
2023-05-05T00:06:40.148Z,10.60
2023-05-05T00:09:07.092Z,10.50
2023-05-05T00:11:37.011Z,10.50
2023-05-05T00:14:05.901Z,10.50
2023-05-05T00:16:33.108Z,10.50
2023-05-05T00:19:03.419Z,10.40
2023-05-05T00:21:31.853Z,10.40
2023-05-05T00:23:58.931Z,10.40
2023-05-05T00:26:30.469Z,10.40
2023-05-05T00:29:01.022Z,10.40
2023-05-05T00:31:29.636Z,10.40
2023-05-05T00:33:58.159Z,10.40
2023-05-05T00:36:25.232Z,10.40
2023-05-05T00:38:57.200Z,10.40
2023-05-05T00:41:24.335Z,10.30
2023-05-05T00:43:54.542Z,10.30
2023-05-05T00:46:28.542Z,10.40
2023-05-05T00:48:58.209Z,10.30
2023-05-05T00:51:25.937Z,10.30
2023-05-05T00:53:56.322Z,10.30
2023-05-05T00:56:23.982Z,10.30
2023-05-05T00:58:51.866Z,10.30
2023-05-05T01:01:19.276Z,10.30
2023-05-05T01:03:50.164Z,10.30
2023-05-05T01:06:41.994Z,10.30
2023-05-05T01:09:28.696Z,10.30
2023-05-05T01:12:08.115Z,10.20
2023-05-05T01:14:40.223Z,10.20
2023-05-05T01:17:17.212Z,10.20
2023-05-05T01:20:16.603Z,10.30
2023-05-05T01:22:53.142Z,10.20
2023-05-05T01:26:06.965Z,10.20
2023-05-05T01:29:07.012Z,10.20
2023-05-05T01:31:48.282Z,10.20
2023-05-05T01:34:20.765Z,10.10
2023-05-05T01:36:58.341Z,10.10
2023-05-05T01:39:33.246Z,10.10
2023-05-05T01:42:08.583Z,10.10
2023-05-05T01:44:38.303Z,10.10
2023-05-05T01:47:10.350Z,10.10
2023-05-05T01:49:43.151Z,10.10
2023-05-05T01:52:11.824Z,10.10
2023-05-05T01:54:40.920Z,10.10
2023-05-05T01:57:11.400Z,10.10
2023-05-05T01:59:39.743Z,10.10
2023-05-05T02:02:13.602Z,10.10
2023-05-05T02:04:44.345Z,10.00
2023-05-05T02:07:17.189Z,10.10
2023-05-05T02:09:45.719Z,10.10
2023-05-05T02:12:13.419Z,10.10
2023-05-05T02:14:44.077Z,10.10
2023-05-05T02:17:25.327Z,10.00
2023-05-05T02:20:02.074Z,10.00
2023-05-05T02:22:33.603Z,10.00
2023-05-05T02:25:10.621Z,10.00
2023-05-05T02:27:43.874Z,9.90
2023-05-05T02:30:16.974Z,10.00
2023-05-05T02:32:56.577Z,9.90
2023-05-05T02:35:38.391Z,9.90
2023-05-05T02:38:16.586Z,9.90
2023-05-05T02:40:49.897Z,9.90
2023-05-05T02:43:22.418Z,9.90
2023-05-05T02:45:55.848Z,9.90
2023-05-05T02:48:28.555Z,9.90
2023-05-05T02:51:02.877Z,9.90
2023-05-05T02:53:35.453Z,9.90
2023-05-05T02:56:17.663Z,9.90
2023-05-05T02:59:04.276Z,9.90
2023-05-05T03:01:46.484Z,9.90
2023-05-05T03:04:23.196Z,9.90
2023-05-05T03:06:59.533Z,9.80
2023-05-05T03:09:39.743Z,9.80
2023-05-05T03:12:10.854Z,9.80
2023-05-05T03:15:01.722Z,9.70
2023-05-05T03:17:33.967Z,9.70
2023-05-05T03:20:05.431Z,9.70
2023-05-05T03:22:39.829Z,9.70
2023-05-05T03:25:20.571Z,9.60
2023-05-05T03:27:57.138Z,9.60
2023-05-05T03:30:24.836Z,9.60
2023-05-05T03:32:55.717Z,9.60
2023-05-05T03:35:27.278Z,9.60
2023-05-05T03:37:56.869Z,9.50
2023-05-05T03:40:40.360Z,9.50
2023-05-05T03:43:12.136Z,9.50
2023-05-05T03:45:39.409Z,9.50
2023-05-05T03:48:08.480Z,9.50
2023-05-05T03:50:39.812Z,9.50
2023-05-05T03:53:12.231Z,9.50
2023-05-05T03:55:42.162Z,9.50
2023-05-05T03:58:09.166Z,9.50
2023-05-05T04:00:44.810Z,9.50
2023-05-05T04:03:23.191Z,9.50
2023-05-05T04:05:54.616Z,9.50
2023-05-05T04:08:24.698Z,9.50
2023-05-05T04:10:51.873Z,9.50
2023-05-05T04:13:21.672Z,9.50
2023-05-05T04:15:49.133Z,9.60
2023-05-05T04:18:56.775Z,9.60
2023-05-05T04:21:28.279Z,9.60
2023-05-05T04:23:56.361Z,9.60
2023-05-05T04:26:23.672Z,9.60
2023-05-05T04:28:53.461Z,9.60
2023-05-05T04:31:20.757Z,9.60
2023-05-05T04:33:50.402Z,9.70
2023-05-05T04:36:17.877Z,9.70
2023-05-05T04:38:49.871Z,9.70
2023-05-05T04:43:58.588Z,9.70
2023-05-05T04:46:29.764Z,9.70
2023-05-05T04:49:00.998Z,9.70
2023-05-05T04:51:28.265Z,9.70
2023-05-05T04:54:00.578Z,9.70
2023-05-05T04:56:30.624Z,9.80
2023-05-05T04:58:57.715Z,9.80
2023-05-05T05:01:25.659Z,9.80
2023-05-05T05:03:53.399Z,9.90
2023-05-05T05:06:22.316Z,9.90
2023-05-05T05:08:50.028Z,10.00
2023-05-05T05:11:18.384Z,10.00
2023-05-05T05:13:45.298Z,10.00
2023-05-05T05:16:14.682Z,10.10
2023-05-05T05:19:09.106Z,10.20
2023-05-05T05:21:36.471Z,10.20
2023-05-05T05:24:04.622Z,10.40
2023-05-05T05:26:33.107Z,10.50
2023-05-05T05:31:56.115Z,10.80
2023-05-05T05:38:39.434Z,11.30
2023-05-05T05:41:33.860Z,11.50
2023-05-05T05:44:01.454Z,11.70
2023-05-05T05:46:33.312Z,11.80
2023-05-05T05:49:05.984Z,11.90
2023-05-05T05:51:33.930Z,12.00
2023-05-05T05:54:01.707Z,12.00
2023-05-05T05:56:29.653Z,12.10
2023-05-05T05:58:58.686Z,12.10
2023-05-05T06:01:25.834Z,12.10
2023-05-05T06:03:53.976Z,12.20
2023-05-05T06:06:21.750Z,12.10
2023-05-05T06:08:48.679Z,12.10
2023-05-05T06:11:15.684Z,12.00
2023-05-05T06:13:42.752Z,12.00
2023-05-05T06:19:06.894Z,12.00
2023-05-05T06:21:34.056Z,11.90
2023-05-05T06:24:01.028Z,11.90
2023-05-05T06:26:32.281Z,11.90
2023-05-05T06:28:59.438Z,11.90
2023-05-05T06:31:27.738Z,12.00
2023-05-05T06:34:06.175Z,12.00
2023-05-05T06:36:37.014Z,12.10
2023-05-05T06:39:04.360Z,12.40
2023-05-05T06:41:31.263Z,13.00
2023-05-05T06:43:58.405Z,13.50
2023-05-05T06:46:32.341Z,14.00
2023-05-05T06:49:08.967Z,14.30
2023-05-05T06:51:41.543Z,14.70
2023-05-05T06:54:09.900Z,15.00
2023-05-05T06:56:42.580Z,15.30
2023-05-05T06:59:12.352Z,15.60
2023-05-05T07:01:43.454Z,15.90
2023-05-05T07:04:10.977Z,16.10
2023-05-05T07:06:37.917Z,16.40
2023-05-05T07:09:04.873Z,16.60
2023-05-05T07:11:31.925Z,16.90
2023-05-05T07:14:00.858Z,17.20
2023-05-05T07:16:28.354Z,17.30
2023-05-05T07:18:56.713Z,17.40
2023-05-05T07:21:28.295Z,17.70
2023-05-05T07:23:55.509Z,18.10
2023-05-05T07:26:25.530Z,18.40
2023-05-05T07:29:09.304Z,18.70
2023-05-05T07:31:36.546Z,19.00
2023-05-05T07:34:07.456Z,19.30
2023-05-05T07:36:34.481Z,19.40
2023-05-05T07:39:01.409Z,19.60
2023-05-05T07:41:28.819Z,19.80
2023-05-05T07:43:55.756Z,19.50
2023-05-05T07:46:22.809Z,19.60
2023-05-05T07:48:49.844Z,20.30
2023-05-05T07:51:18.323Z,20.70
2023-05-05T07:53:45.503Z,20.20
2023-05-05T07:56:12.480Z,19.50
2023-05-05T07:58:39.944Z,19.10
2023-05-05T08:01:07.104Z,19.60
2023-05-05T08:03:34.385Z,19.50
2023-05-05T08:06:07.737Z,19.20
2023-05-05T08:08:36.549Z,19.10
2023-05-05T08:11:04.324Z,19.70
2023-05-05T08:13:31.602Z,20.00
2023-05-05T08:15:58.734Z,20.00
2023-05-05T08:18:25.888Z,19.80
2023-05-05T08:20:53.013Z,19.50
2023-05-05T08:23:20.085Z,20.00
2023-05-05T08:25:48.611Z,20.40
2023-05-05T08:28:15.733Z,20.80
2023-05-05T08:30:42.983Z,21.20
2023-05-05T08:33:10.187Z,21.50
2023-05-05T08:35:39.067Z,21.90
2023-05-05T08:38:08.923Z,21.90
2023-05-05T08:40:38.741Z,21.80
2023-05-05T08:43:07.579Z,21.60
2023-05-05T08:45:34.708Z,21.70
2023-05-05T08:48:04.610Z,21.70
2023-05-05T08:50:33.014Z,21.90
2023-05-05T08:53:11.306Z,22.50
2023-05-05T08:55:47.812Z,23.10
2023-05-05T08:58:18.661Z,23.60
2023-05-05T09:00:46.455Z,24.10
2023-05-05T09:03:15.026Z,24.50
2023-05-05T09:05:43.334Z,24.90
2023-05-05T09:08:11.511Z,25.00
2023-05-05T09:10:41.084Z,25.20
2023-05-05T09:13:08.367Z,25.30
2023-05-05T09:15:36.779Z,25.60
2023-05-05T09:18:07.301Z,25.80
2023-05-05T09:20:37.349Z,26.00
2023-05-05T09:23:09.766Z,25.70
2023-05-05T09:25:37.275Z,25.30
2023-05-05T09:28:12.162Z,24.70
2023-05-05T09:30:50.939Z,25.50
2023-05-05T09:33:29.972Z,26.10
2023-05-05T09:35:58.335Z,26.40
2023-05-05T09:38:25.666Z,26.40
2023-05-05T09:40:54.064Z,26.70
2023-05-05T09:43:23.126Z,27.00
2023-05-05T09:45:51.607Z,27.40
2023-05-05T09:48:26.373Z,27.50
2023-05-05T09:50:54.024Z,27.50
2023-05-05T09:53:21.579Z,27.30
2023-05-05T09:55:56.395Z,27.20
2023-05-05T09:58:25.819Z,27.30
2023-05-05T10:00:55.344Z,27.30
2023-05-05T10:03:26.928Z,27.50
2023-05-05T10:05:55.095Z,27.90
2023-05-05T10:08:25.432Z,27.70
2023-05-05T10:10:55.391Z,27.30
2023-05-05T10:13:24.815Z,27.10
2023-05-05T10:15:56.012Z,26.40
2023-05-05T10:18:25.383Z,25.20
2023-05-05T10:20:57.916Z,24.20
2023-05-05T10:23:35.732Z,23.50
2023-05-05T10:26:08.254Z,23.00
2023-05-05T10:28:43.770Z,22.60
2023-05-05T10:31:25.898Z,22.20
2023-05-05T10:34:00.480Z,22.00
2023-05-05T10:36:29.131Z,21.60
2023-05-05T10:38:56.809Z,21.40
2023-05-05T10:41:31.624Z,21.20
2023-05-05T10:44:01.397Z,20.90
2023-05-05T10:46:32.197Z,20.60
2023-05-05T10:49:13.102Z,20.40
2023-05-05T10:51:52.675Z,20.20
2023-05-05T10:57:31.231Z,20.00
2023-05-05T11:01:29.211Z,20.00
2023-05-05T11:04:20.057Z,20.20
2023-05-05T11:07:24.491Z,20.60
2023-05-05T11:13:20.482Z,21.00
2023-05-05T11:15:50.979Z,21.20
2023-05-05T11:18:37.534Z,21.10
2023-05-05T11:21:14.690Z,21.10
2023-05-05T11:23:43.888Z,21.10
2023-05-05T11:26:12.165Z,21.50
2023-05-05T11:29:01.080Z,21.90
2023-05-05T11:31:29.504Z,23.70
2023-05-05T11:34:34.270Z,24.10
2023-05-05T11:37:07.580Z,24.30
2023-05-05T11:39:55.618Z,23.80
2023-05-05T11:42:26.750Z,23.70
2023-05-05T11:44:54.974Z,24.00
2023-05-05T11:47:32.687Z,24.10
2023-05-05T11:50:20.896Z,24.00
2023-05-05T11:52:49.672Z,24.40
2023-05-05T11:55:21.379Z,24.30
2023-05-05T11:57:48.417Z,24.20
2023-05-05T12:00:17.103Z,24.00
2023-05-05T12:02:59.707Z,23.60
2023-05-05T12:05:26.929Z,23.30
2023-05-05T12:07:58.773Z,23.10
2023-05-05T12:10:26.239Z,22.90
2023-05-05T12:12:56.023Z,22.70
2023-05-05T12:15:32.151Z,22.50
2023-05-05T12:18:02.115Z,22.50
2023-05-05T12:20:32.146Z,22.50
2023-05-05T12:23:04.562Z,22.60
2023-05-05T12:25:39.667Z,22.80
2023-05-05T12:28:09.316Z,22.90
2023-05-05T12:30:36.741Z,22.90
2023-05-05T12:33:06.037Z,22.90
2023-05-05T12:35:33.898Z,22.70
2023-05-05T12:38:05.407Z,22.40
2023-05-05T12:40:57.574Z,22.10
2023-05-05T12:43:35.308Z,21.90
2023-05-05T12:53:21.194Z,20.70
2023-05-05T12:55:48.474Z,20.40
2023-05-05T12:58:15.396Z,20.20
2023-05-05T13:00:42.431Z,19.80
2023-05-05T13:03:19.183Z,19.50
2023-05-05T13:05:46.699Z,19.30
2023-05-05T13:08:15.162Z,19.30
2023-05-05T13:10:56.697Z,19.30
2023-05-05T13:13:29.346Z,19.40
2023-05-05T13:15:58.985Z,19.50
2023-05-05T13:18:26.226Z,19.60
2023-05-05T13:20:53.490Z,19.60
2023-05-05T13:23:22.728Z,19.60
2023-05-05T13:25:50.677Z,19.50
2023-05-05T13:28:18.052Z,19.50
2023-05-05T13:30:45.281Z,19.50
2023-05-05T13:33:12.523Z,19.60
2023-05-05T13:35:39.536Z,19.60
2023-05-05T13:38:06.922Z,19.70
2023-05-05T13:40:35.453Z,19.70
2023-05-05T13:43:02.508Z,19.70
2023-05-05T13:45:29.610Z,19.60
2023-05-05T13:47:56.626Z,19.50
2023-05-05T13:50:23.890Z,19.40
2023-05-05T13:52:50.936Z,19.40
2023-05-05T13:55:18.283Z,19.40
2023-05-05T13:57:46.748Z,19.40
2023-05-05T14:00:15.934Z,19.50
2023-05-05T14:02:42.947Z,19.50
2023-05-05T14:05:10.721Z,19.50
2023-05-05T14:07:37.941Z,19.40
2023-05-05T14:10:10.243Z,19.40
2023-05-05T14:12:37.757Z,19.20
2023-05-05T14:15:08.165Z,19.00
2023-05-05T14:17:35.535Z,18.90
2023-05-05T14:20:03.040Z,18.80
2023-05-05T14:22:32.650Z,18.60
2023-05-05T14:24:59.873Z,18.40
2023-05-05T14:27:26.958Z,18.20
2023-05-05T14:29:54.528Z,18.10
2023-05-05T14:32:23.014Z,18.10
2023-05-05T14:34:51.011Z,18.20
2023-05-05T14:37:18.320Z,18.20
2023-05-05T14:39:51.630Z,18.10
2023-05-05T14:42:18.665Z,17.90
2023-05-05T14:44:45.943Z,17.80
2023-05-05T14:47:13.087Z,17.60
2023-05-05T14:49:41.780Z,17.50
2023-05-05T14:52:08.822Z,17.40
2023-05-05T14:54:36.176Z,17.30
2023-05-05T14:57:03.461Z,17.30
2023-05-05T14:59:31.048Z,17.30
2023-05-05T15:01:58.422Z,17.40
2023-05-05T15:04:25.478Z,17.50
2023-05-05T15:06:54.171Z,17.70
2023-05-05T15:09:21.116Z,17.90
2023-05-05T15:11:48.254Z,17.90
2023-05-05T15:14:15.166Z,17.90
2023-05-05T15:16:42.542Z,17.80
2023-05-05T15:19:09.703Z,17.80
2023-05-05T15:21:36.825Z,17.80
2023-05-05T15:24:06.677Z,17.60
2023-05-05T15:26:33.622Z,17.60
2023-05-05T15:29:00.764Z,17.50
2023-05-05T15:31:27.818Z,17.50
2023-05-05T15:33:56.403Z,17.40
2023-05-05T15:36:23.453Z,17.50
2023-05-05T15:38:50.417Z,17.60
2023-05-05T15:41:19.618Z,17.60
2023-05-05T15:43:46.649Z,17.70
2023-05-05T15:46:13.765Z,17.70
2023-05-05T15:48:40.992Z,17.80
2023-05-05T15:51:07.929Z,17.80
2023-05-05T15:53:34.895Z,17.90
2023-05-05T15:56:02.344Z,17.90
2023-05-05T15:58:30.943Z,17.90
2023-05-05T16:00:58.045Z,18.00
2023-05-05T16:03:25.518Z,18.20
2023-05-05T16:05:52.578Z,18.40
2023-05-05T16:08:19.631Z,18.50
2023-05-05T16:10:46.810Z,18.70
2023-05-05T16:13:13.976Z,18.50
2023-05-05T16:15:42.518Z,18.30
2023-05-05T16:18:09.721Z,18.10
2023-05-05T16:20:36.916Z,17.80
2023-05-05T16:23:03.927Z,17.60
2023-05-05T16:25:31.125Z,17.40
2023-05-05T16:27:58.137Z,17.10
2023-05-05T16:30:25.681Z,16.90
2023-05-05T16:32:54.191Z,16.70
2023-05-05T16:35:26.428Z,16.60
2023-05-05T16:37:53.384Z,16.50
2023-05-05T16:40:21.362Z,16.30
2023-05-05T16:42:48.563Z,16.20
2023-05-05T16:45:15.894Z,16.00
2023-05-05T16:47:42.905Z,15.90
2023-05-05T16:50:11.944Z,15.80
2023-05-05T16:52:38.902Z,15.60
2023-05-05T16:55:06.538Z,15.50
2023-05-05T16:57:33.683Z,15.40
2023-05-05T17:00:00.633Z,15.30
2023-05-05T17:02:27.964Z,15.10
2023-05-05T17:05:21.517Z,15.00
2023-05-05T17:07:48.654Z,14.90
2023-05-05T17:10:16.322Z,14.80
2023-05-05T17:12:43.765Z,14.70
2023-05-05T17:15:11.587Z,14.60
2023-05-05T17:17:41.551Z,14.60
2023-05-05T17:20:11.477Z,14.50
2023-05-05T17:22:42.267Z,14.40
2023-05-05T17:25:12.714Z,14.30
2023-05-05T17:27:43.264Z,14.20
2023-05-05T17:33:07.466Z,14.10
2023-05-05T17:35:34.827Z,14.00
2023-05-05T17:38:03.229Z,13.90
2023-05-05T17:40:32.078Z,13.80
2023-05-05T17:42:59.196Z,13.70
2023-05-05T17:45:29.116Z,13.60
2023-05-05T17:47:56.874Z,13.50
2023-05-05T17:50:24.105Z,13.40
2023-05-05T17:52:51.426Z,13.40
2023-05-05T17:55:20.574Z,13.30
2023-05-05T17:57:48.011Z,13.20
2023-05-05T18:00:19.276Z,13.10
2023-05-05T18:02:47.255Z,13.10
2023-05-05T18:05:14.728Z,13.00
2023-05-05T18:07:42.597Z,12.90
2023-05-05T18:10:10.466Z,12.80
2023-05-05T18:12:39.021Z,12.70
2023-05-05T18:15:11.994Z,12.60
2023-05-05T18:17:39.407Z,12.60
2023-05-05T18:20:11.270Z,12.50
2023-05-05T18:22:41.051Z,12.40
2023-05-05T18:25:09.730Z,12.40
2023-05-05T18:27:39.802Z,12.40
2023-05-05T18:30:08.634Z,12.30
2023-05-05T18:32:37.355Z,12.20
2023-05-05T18:35:05.977Z,12.20
2023-05-05T18:37:33.742Z,12.10
2023-05-05T18:40:04.793Z,12.10
2023-05-05T18:42:33.295Z,12.00
2023-05-05T18:45:02.106Z,12.00
2023-05-05T18:47:30.803Z,12.00
2023-05-05T18:49:59.114Z,11.90
2023-05-05T18:52:26.608Z,11.80
2023-05-05T18:54:54.232Z,11.80
2023-05-05T18:57:21.507Z,11.80
2023-05-05T18:59:52.553Z,11.70
2023-05-05T19:02:21.621Z,11.60
2023-05-05T19:04:48.799Z,11.50
2023-05-05T19:07:31.384Z,11.50
2023-05-05T19:10:03.413Z,11.40
2023-05-05T19:12:30.740Z,11.40
2023-05-05T19:15:00.461Z,11.30
2023-05-05T19:17:29.197Z,11.20
2023-05-05T19:19:58.997Z,11.20
2023-05-05T19:22:26.645Z,11.10
2023-05-05T19:24:53.912Z,11.00
2023-05-05T19:27:24.263Z,11.00
2023-05-05T19:29:53.812Z,10.90
2023-05-05T19:32:24.900Z,10.80
2023-05-05T19:34:53.859Z,10.80
2023-05-05T19:37:21.478Z,10.80
2023-05-05T19:39:51.789Z,10.70
2023-05-05T19:42:19.927Z,10.70
2023-05-05T19:44:47.124Z,10.60
2023-05-05T19:47:14.882Z,10.60
2023-05-05T19:49:42.146Z,10.50
2023-05-05T19:52:10.738Z,10.50
2023-05-05T19:54:42.872Z,10.50
2023-05-05T19:57:10.035Z,10.40
2023-05-05T19:59:37.525Z,10.40
2023-05-05T20:02:05.302Z,10.30
2023-05-05T20:04:33.170Z,10.30
2023-05-05T20:07:00.521Z,10.20
2023-05-05T20:09:29.229Z,10.20
2023-05-05T20:11:59.208Z,10.10
2023-05-05T20:14:26.466Z,10.10
2023-05-05T20:16:56.890Z,10.10
2023-05-05T20:19:24.757Z,10.10
2023-05-05T20:21:51.910Z,10.00
2023-05-05T20:24:25.826Z,10.00
2023-05-05T20:26:54.931Z,10.00
2023-05-05T20:29:22.525Z,10.00
2023-05-05T20:31:50.396Z,9.90
2023-05-05T20:34:17.579Z,9.90
2023-05-05T20:36:44.895Z,9.90
2023-05-05T20:39:15.633Z,9.80
2023-05-05T20:41:42.972Z,9.80
2023-05-05T20:44:12.823Z,9.80
2023-05-05T20:46:41.819Z,9.70
2023-05-05T20:49:09.040Z,9.70
2023-05-05T20:51:36.088Z,9.70
2023-05-05T20:54:03.864Z,9.70
2023-05-05T20:56:31.497Z,9.70
2023-05-05T20:59:27.211Z,9.70
2023-05-05T21:01:57.020Z,9.60
2023-05-05T21:04:24.445Z,9.60
2023-05-05T21:06:54.119Z,9.60
2023-05-05T21:09:21.376Z,9.50
2023-05-05T21:11:50.232Z,9.50
2023-05-05T21:14:17.247Z,9.50
2023-05-05T21:16:45.668Z,9.50
2023-05-05T21:19:13.435Z,9.40
2023-05-05T21:21:40.547Z,9.40
2023-05-05T21:24:08.500Z,9.40
2023-05-05T21:26:35.664Z,9.40
2023-05-05T21:29:04.319Z,9.30
2023-05-05T21:31:31.846Z,9.30
2023-05-05T21:34:00.587Z,9.30
2023-05-05T21:36:27.860Z,9.20
2023-05-05T21:38:55.044Z,9.20
2023-05-05T21:41:22.426Z,9.20
2023-05-05T21:43:52.549Z,9.10
2023-05-05T21:46:19.987Z,9.10
2023-05-05T21:48:47.683Z,9.10
2023-05-05T21:51:20.465Z,9.10
2023-05-05T21:53:47.572Z,9.10
2023-05-05T21:56:22.216Z,9.10
2023-05-05T21:58:51.623Z,9.10
2023-05-05T22:01:30.385Z,9.00
2023-05-05T22:03:58.081Z,9.00
2023-05-05T22:06:29.576Z,9.00
2023-05-05T22:08:59.171Z,9.00
2023-05-05T22:11:26.584Z,9.00
2023-05-05T22:13:56.997Z,9.00
2023-05-05T22:16:32.278Z,9.00
2023-05-05T22:18:59.489Z,9.00
2023-05-05T22:21:27.862Z,9.00
2023-05-05T22:23:55.459Z,9.00
2023-05-05T22:26:22.398Z,8.90
2023-05-05T22:28:49.781Z,8.90
2023-05-05T22:31:16.943Z,8.90
2023-05-05T22:33:46.409Z,8.90
2023-05-05T22:36:16.602Z,8.90
2023-05-05T22:38:44.952Z,8.90
2023-05-05T22:44:03.708Z,8.90
2023-05-05T22:46:30.849Z,8.90
2023-05-05T22:49:00.392Z,8.90
2023-05-05T22:51:54.192Z,8.90
2023-05-05T22:54:22.820Z,8.90
2023-05-05T22:56:50.430Z,8.90
2023-05-05T22:59:17.450Z,8.90
2023-05-05T23:01:44.307Z,8.90
2023-05-05T23:04:15.489Z,8.90
2023-05-05T23:06:42.727Z,8.80
2023-05-05T23:09:09.829Z,8.80
2023-05-05T23:11:40.608Z,8.80
2023-05-05T23:14:07.492Z,8.80
2023-05-05T23:16:35.589Z,8.80
2023-05-05T23:19:02.870Z,8.80
2023-05-05T23:21:32.081Z,8.80
2023-05-05T23:24:01.753Z,8.70
2023-05-05T23:26:28.654Z,8.70
2023-05-05T23:28:56.976Z,8.80
2023-05-05T23:31:24.509Z,8.70
2023-05-05T23:33:51.625Z,8.70
2023-05-05T23:36:19.147Z,8.70
2023-05-05T23:38:48.569Z,8.70
2023-05-05T23:41:15.534Z,8.70
2023-05-05T23:43:42.677Z,8.70
2023-05-05T23:46:11.472Z,8.70
2023-05-05T23:48:38.564Z,8.70
2023-05-05T23:51:05.578Z,8.70
2023-05-05T23:53:32.651Z,8.70
2023-05-05T23:55:59.757Z,8.70
2023-05-05T23:58:27.038Z,8.70
